Time;durP1;ratioP1;P1;durP2;ratioP2;P2;SDS_P1;SDS_P2;PMS_P1;PMS_P2;Temp;Humidity;BMP_temperature;BMP_pressure;BME280_temperature;BME280_humidity;BME280_pressure;Samples;Min_cycle;Max_cycle;Signal;HPM_P1;HPM_P2
2023/08/16 00:00:06;;;;;;;4.73;3.83;;;;;;;;;;569516;25;1133;-74
2023/08/16 00:00:21;;;;;;;6.63;3.90;;;;;;;;;;571202;25;844;-74
2023/08/16 00:00:41;;;;;;;5.23;3.80;;;;;;;;;;573621;25;819;-74
2023/08/16 00:01:14;;;;;;;4.43;3.72;;;;;;;;;;572211;25;1167;-74
2023/08/16 00:01:33;;;;;;;4.85;4.35;;;;;;;;;;569711;25;1245;-73
2023/08/16 00:01:52;;;;;;;4.70;4.20;;;;;;;;;;570905;25;1148;-74
2023/08/16 00:02:29;;;;;;;4.90;4.13;;;;;;;;;;570436;25;875;-73
2023/08/16 00:02:49;;;;;;;5.18;3.95;;;;;;;;;;570009;25;1927;-74
2023/08/16 00:03:05;;;;;;;5.65;4.43;;;;;;;;;;569973;25;820;-74
2023/08/16 00:03:21;;;;;;;5.82;4.47;;;;;;;;;;572984;25;1994;-73
2023/08/16 00:03:37;;;;;;;5.10;4.30;;;;;;;;;;572387;25;1388;-73
2023/08/16 00:03:56;;;;;;;5.07;4.45;;;;;;;;;;572048;25;781;-74
2023/08/16 00:04:11;;;;;;;6.00;4.65;;;;;;;;;;573079;25;1988;-73
2023/08/16 00:04:27;;;;;;;6.38;4.63;;;;;;;;;;572293;25;1200;-73
2023/08/16 00:04:56;;;;;;;5.80;4.57;;;;;;;;;;573268;25;946;-73
2023/08/16 00:05:15;;;;;;;4.50;4.10;;;;;;;;;;572822;25;1055;-74
2023/08/16 00:05:37;;;;;;;4.80;4.30;;;;;;;;;;573640;25;1463;-74
2023/08/16 00:05:52;;;;;;;4.80;4.30;;;;;;;;;;572434;25;1219;-74
2023/08/16 00:06:09;;;;;;;4.50;4.10;;;;;;;;;;572746;25;788;-74
2023/08/16 00:06:25;;;;;;;4.90;4.40;;;;;;;;;;572465;25;1268;-73
2023/08/16 00:06:43;;;;;;;5.28;4.68;;;;;;;;;;574671;25;1216;-74
2023/08/16 00:06:58;;;;;;;5.53;4.85;;;;;;;;;;573731;25;945;-73
2023/08/16 00:07:14;;;;;;;5.38;4.70;;;;;;;;;;573855;25;824;-73
2023/08/16 00:07:32;;;;;;;5.28;4.45;;;;;;;;;;574545;25;826;-74
2023/08/16 00:07:48;;;;;;;6.15;4.50;;;;;;;;;;574613;25;848;-73
2023/08/16 00:08:03;;;;;;;5.97;4.63;;;;;;;;;;575212;25;813;-73
2023/08/16 00:08:19;;;;;;;5.10;4.50;;;;;;;;;;575416;25;1370;-73
2023/08/16 00:08:34;;;;;;;5.17;4.67;;;;;;;;;;575196;25;935;-73
2023/08/16 00:08:53;;;;;;;6.57;5.20;;;;;;;;;;574974;25;1247;-73
2023/08/16 00:09:08;;;;;;;8.02;5.25;;;;;;;;;;576004;25;1402;-74
2023/08/16 00:09:24;;;;;;;6.32;4.70;;;;;;;;;;575524;25;1098;-73
2023/08/16 00:09:40;;;;;;;5.30;4.80;;;;;;;;;;575403;25;1231;-73
2023/08/16 00:09:55;;;;;;;5.93;5.33;;;;;;;;;;575565;25;898;-73
2023/08/16 00:10:11;;;;;;;7.05;5.47;;;;;;;;;;575506;25;1239;-74
2023/08/16 00:10:27;;;;;;;7.43;5.43;;;;;;;;;;575877;25;1511;-73
2023/08/16 00:10:42;;;;;;;8.57;5.40;;;;;;;;;;575707;25;784;-74
2023/08/16 00:10:58;;;;;;;9.55;5.70;;;;;;;;;;579731;25;1592;-74
2023/08/16 00:11:13;;;;;;;7.23;5.80;;;;;;;;;;579149;25;783;-74
2023/08/16 00:11:29;;;;;;;6.05;5.45;;;;;;;;;;583140;25;1289;-74
2023/08/16 00:11:44;;;;;;;5.90;5.30;;;;;;;;;;582703;25;1529;-74
2023/08/16 00:11:59;;;;;;;6.15;5.28;;;;;;;;;;584529;25;1433;-74
2023/08/16 00:12:15;;;;;;;6.07;5.37;;;;;;;;;;586299;25;1391;-73
2023/08/16 00:12:30;;;;;;;6.03;5.43;;;;;;;;;;583627;25;1199;-74
2023/08/16 00:12:46;;;;;;;7.10;5.60;;;;;;;;;;583958;25;1227;-74
2023/08/16 00:13:02;;;;;;;7.57;5.50;;;;;;;;;;585751;24;1032;-73
2023/08/16 00:13:17;;;;;;;6.97;5.50;;;;;;;;;;590729;24;786;-74
2023/08/16 00:13:34;;;;;;;6.32;5.65;;;;;;;;;;590434;24;1242;-74
2023/08/16 00:13:53;;;;;;;7.55;5.90;;;;;;;;;;590895;24;1328;-74
2023/08/16 00:14:08;;;;;;;8.13;6.28;;;;;;;;;;592453;24;1256;-74
2023/08/16 00:14:24;;;;;;;7.53;6.20;;;;;;;;;;593750;24;1466;-74
2023/08/16 00:14:40;;;;;;;6.80;5.83;;;;;;;;;;595134;24;1097;-74
2023/08/16 00:14:55;;;;;;;6.40;5.70;;;;;;;;;;592014;24;1292;-74
2023/08/16 00:15:11;;;;;;;7.18;6.07;;;;;;;;;;591942;24;1358;-74
2023/08/16 00:15:30;;;;;;;8.45;6.25;;;;;;;;;;591798;24;1304;-74
2023/08/16 00:15:46;;;;;;;8.02;6.20;;;;;;;;;;592056;24;1454;-74
2023/08/16 00:16:02;;;;;;;6.90;6.07;;;;;;;;;;592065;24;1275;-73
2023/08/16 00:16:21;;;;;;;6.55;5.85;;;;;;;;;;590319;24;1637;-74
2023/08/16 00:16:40;;;;;;;7.07;6.13;;;;;;;;;;587136;24;1457;-74
2023/08/16 00:16:57;;;;;;;7.07;6.35;;;;;;;;;;587036;25;1182;-73
2023/08/16 00:17:13;;;;;;;7.10;6.40;;;;;;;;;;587492;24;1328;-74
2023/08/16 00:17:29;;;;;;;6.72;6.10;;;;;;;;;;590376;24;838;-74
2023/08/16 00:17:48;;;;;;;6.72;5.88;;;;;;;;;;592213;24;827;-73
2023/08/16 00:18:04;;;;;;;8.63;6.10;;;;;;;;;;592458;24;1287;-74
2023/08/16 00:18:20;;;;;;;8.32;5.97;;;;;;;;;;590068;24;1371;-74
2023/08/16 00:18:36;;;;;;;7.70;6.10;;;;;;;;;;592147;24;1248;-73
2023/08/16 00:18:51;;;;;;;7.93;6.10;;;;;;;;;;601753;24;1225;-74
2023/08/16 00:19:07;;;;;;;8.35;6.20;;;;;;;;;;605209;24;817;-74
2023/08/16 00:19:23;;;;;;;8.33;6.23;;;;;;;;;;606186;24;1316;-74
2023/08/16 00:19:42;;;;;;;8.45;6.20;;;;;;;;;;605869;24;1400;-74
2023/08/16 00:19:57;;;;;;;6.90;5.72;;;;;;;;;;606807;24;876;-74
2023/08/16 00:20:27;;;;;;;6.28;5.40;;;;;;;;;;606252;24;1349;-73
2023/08/16 00:20:43;;;;;;;6.45;5.60;;;;;;;;;;606705;24;857;-74
2023/08/16 00:20:59;;;;;;;6.55;5.82;;;;;;;;;;606781;24;1199;-74
2023/08/16 00:21:15;;;;;;;7.82;6.10;;;;;;;;;;607668;24;1177;-74
2023/08/16 00:21:33;;;;;;;7.40;5.90;;;;;;;;;;608508;24;1215;-74
2023/08/16 00:21:48;;;;;;;6.63;5.78;;;;;;;;;;606466;24;1096;-75
2023/08/16 00:22:04;;;;;;;6.97;5.53;;;;;;;;;;609602;24;1480;-74
2023/08/16 00:22:20;;;;;;;6.33;5.40;;;;;;;;;;609190;24;920;-74
2023/08/16 00:22:36;;;;;;;6.47;5.78;;;;;;;;;;608637;24;1344;-74
2023/08/16 00:22:51;;;;;;;7.18;6.07;;;;;;;;;;606326;24;1894;-74
2023/08/16 00:23:07;;;;;;;7.20;5.93;;;;;;;;;;606214;24;853;-74
2023/08/16 00:23:23;;;;;;;7.30;5.95;;;;;;;;;;604927;24;1290;-73
2023/08/16 00:23:39;;;;;;;6.97;6.10;;;;;;;;;;612450;24;1313;-74
2023/08/16 00:23:54;;;;;;;7.90;6.40;;;;;;;;;;611563;24;1413;-74
2023/08/16 00:24:10;;;;;;;9.32;6.72;;;;;;;;;;609197;24;1052;-74
2023/08/16 00:24:26;;;;;;;8.00;6.57;;;;;;;;;;609630;24;1245;-74
2023/08/16 00:24:42;;;;;;;7.57;6.20;;;;;;;;;;609188;24;1241;-74
2023/08/16 00:24:57;;;;;;;8.02;6.07;;;;;;;;;;611925;24;875;-75
2023/08/16 00:25:13;;;;;;;7.43;5.93;;;;;;;;;;611841;24;1228;-74
2023/08/16 00:25:29;;;;;;;8.15;6.10;;;;;;;;;;608651;24;1142;-74
2023/08/16 00:25:44;;;;;;;7.93;6.05;;;;;;;;;;609630;24;848;-74
2023/08/16 00:26:00;;;;;;;6.38;5.65;;;;;;;;;;612003;24;1036;-74
2023/08/16 00:26:16;;;;;;;6.53;5.80;;;;;;;;;;613131;23;813;-74
2023/08/16 00:26:31;;;;;;;6.97;6.25;;;;;;;;;;613095;23;1537;-74
2023/08/16 00:26:50;;;;;;;7.05;6.22;;;;;;;;;;615062;23;1105;-73
2023/08/16 00:27:08;;;;;;;7.05;5.88;;;;;;;;;;615025;23;931;-74
2023/08/16 00:27:26;;;;;;;7.07;6.10;;;;;;;;;;616337;23;1392;-74
2023/08/16 00:27:42;;;;;;;7.03;6.15;;;;;;;;;;617839;23;960;-75
2023/08/16 00:27:57;;;;;;;7.68;6.10;;;;;;;;;;614631;23;1263;-73
2023/08/16 00:28:13;;;;;;;7.20;6.20;;;;;;;;;;611922;23;1186;-74
2023/08/16 00:28:28;;;;;;;6.72;5.90;;;;;;;;;;611401;24;1496;-74
2023/08/16 00:28:45;;;;;;;7.95;5.88;;;;;;;;;;610091;23;1289;-74
2023/08/16 00:29:03;;;;;;;7.88;6.10;;;;;;;;;;612412;23;1277;-73
2023/08/16 00:29:19;;;;;;;6.60;5.90;;;;;;;;;;612034;23;1377;-73
2023/08/16 00:29:35;;;;;;;6.80;6.10;;;;;;;;;;612106;23;884;-74
2023/08/16 00:29:50;;;;;;;6.72;6.00;;;;;;;;;;612114;24;1108;-74
2023/08/16 00:30:06;;;;;;;6.90;6.17;;;;;;;;;;612170;23;1157;-74
2023/08/16 00:30:24;;;;;;;6.88;5.90;;;;;;;;;;613415;23;888;-74
2023/08/16 00:30:40;;;;;;;7.30;5.90;;;;;;;;;;611681;24;1312;-74
2023/08/16 00:30:56;;;;;;;7.53;6.57;;;;;;;;;;611424;23;1360;-74
2023/08/16 00:31:11;;;;;;;7.30;6.60;;;;;;;;;;616282;23;1366;-74
2023/08/16 00:31:27;;;;;;;6.97;6.25;;;;;;;;;;617474;23;1392;-74
2023/08/16 00:31:43;;;;;;;7.80;6.30;;;;;;;;;;618319;23;1288;-74
2023/08/16 00:32:00;;;;;;;7.97;6.50;;;;;;;;;;618728;23;808;-74
2023/08/16 00:32:22;;;;;;;7.10;6.40;;;;;;;;;;617951;23;1317;-74
2023/08/16 00:32:38;;;;;;;8.27;6.60;;;;;;;;;;621099;23;1563;-74
2023/08/16 00:32:54;;;;;;;7.50;6.70;;;;;;;;;;623117;23;993;-74
2023/08/16 00:33:30;;;;;;;7.07;6.38;;;;;;;;;;623761;23;1366;-74
2023/08/16 00:33:45;;;;;;;7.30;5.55;;;;;;;;;;622905;23;1375;-74
2023/08/16 00:34:01;;;;;;;8.67;5.80;;;;;;;;;;621399;23;1269;-74
2023/08/16 00:34:17;;;;;;;7.70;6.10;;;;;;;;;;618536;23;1316;-74
2023/08/16 00:34:32;;;;;;;6.63;6.03;;;;;;;;;;617214;23;1424;-74
2023/08/16 00:34:48;;;;;;;6.90;6.20;;;;;;;;;;618354;23;1169;-74
2023/08/16 00:35:04;;;;;;;7.40;6.60;;;;;;;;;;620813;23;1483;-74
2023/08/16 00:35:20;;;;;;;7.55;6.63;;;;;;;;;;620564;23;1336;-74
2023/08/16 00:35:36;;;;;;;8.45;6.53;;;;;;;;;;620258;23;1138;-74
2023/08/16 00:35:54;;;;;;;9.13;6.45;;;;;;;;;;621203;23;1051;-73
2023/08/16 00:36:10;;;;;;;6.93;6.03;;;;;;;;;;623923;23;1357;-74
2023/08/16 00:36:26;;;;;;;7.03;5.95;;;;;;;;;;620768;23;1424;-74
2023/08/16 00:36:41;;;;;;;7.73;6.10;;;;;;;;;;621639;23;975;-73
2023/08/16 00:36:57;;;;;;;7.40;6.05;;;;;;;;;;621342;23;972;-74
2023/08/16 00:37:12;;;;;;;6.85;5.78;;;;;;;;;;622357;23;1217;-73
2023/08/16 00:37:28;;;;;;;6.50;5.40;;;;;;;;;;625450;23;745;-74
2023/08/16 00:37:44;;;;;;;5.88;5.10;;;;;;;;;;623968;23;1288;-74
2023/08/16 00:37:59;;;;;;;5.97;5.23;;;;;;;;;;621178;23;1365;-75
2023/08/16 00:38:15;;;;;;;7.10;5.90;;;;;;;;;;621562;23;1201;-74
2023/08/16 00:38:31;;;;;;;7.15;6.25;;;;;;;;;;620976;23;1454;-74
2023/08/16 00:38:46;;;;;;;7.10;6.40;;;;;;;;;;617805;23;1144;-74
2023/08/16 00:39:04;;;;;;;7.22;6.38;;;;;;;;;;615641;23;1402;-74
2023/08/16 00:39:22;;;;;;;7.05;5.88;;;;;;;;;;615517;23;1325;-74
2023/08/16 00:39:43;;;;;;;6.90;5.85;;;;;;;;;;614964;23;1322;-74
2023/08/16 00:40:01;;;;;;;8.48;6.38;;;;;;;;;;618138;23;1291;-74
2023/08/16 00:40:17;;;;;;;7.28;6.28;;;;;;;;;;618147;23;1570;-74
2023/08/16 00:40:52;;;;;;;8.93;6.33;;;;;;;;;;617974;23;1413;-74
2023/08/16 00:41:12;;;;;;;7.90;6.45;;;;;;;;;;620694;23;1507;-74
2023/08/16 00:41:28;;;;;;;6.85;6.10;;;;;;;;;;620835;23;1454;-74
2023/08/16 00:41:43;;;;;;;6.87;6.17;;;;;;;;;;618298;23;1460;-74
2023/08/16 00:41:59;;;;;;;7.05;6.35;;;;;;;;;;614797;23;1224;-75
2023/08/16 00:42:14;;;;;;;8.20;6.38;;;;;;;;;;615405;23;1384;-74
2023/08/16 00:42:30;;;;;;;8.13;6.17;;;;;;;;;;617563;23;888;-73
2023/08/16 00:42:46;;;;;;;7.40;6.35;;;;;;;;;;617866;23;1921;-74
2023/08/16 00:43:01;;;;;;;7.60;6.03;;;;;;;;;;619635;23;900;-74
2023/08/16 00:43:18;;;;;;;7.82;5.40;;;;;;;;;;621489;23;824;-74
2023/08/16 00:43:34;;;;;;;8.82;5.80;;;;;;;;;;624931;23;1431;-74
2023/08/16 00:43:49;;;;;;;7.75;6.22;;;;;;;;;;624892;23;1221;-74
2023/08/16 00:44:05;;;;;;;7.32;6.40;;;;;;;;;;622912;23;1371;-74
2023/08/16 00:44:20;;;;;;;7.30;6.20;;;;;;;;;;621419;23;976;-74
2023/08/16 00:44:36;;;;;;;7.17;6.13;;;;;;;;;;618418;23;1396;-74
2023/08/16 00:44:52;;;;;;;6.68;5.97;;;;;;;;;;618171;23;1415;-74
2023/08/16 00:45:08;;;;;;;6.45;5.85;;;;;;;;;;618067;23;1234;-74
2023/08/16 00:45:24;;;;;;;6.82;6.00;;;;;;;;;;618061;23;1472;-74
2023/08/16 00:45:40;;;;;;;7.13;6.13;;;;;;;;;;618141;23;773;-74
2023/08/16 00:45:55;;;;;;;7.35;6.57;;;;;;;;;;615527;23;1250;-74
2023/08/16 00:46:12;;;;;;;7.97;6.88;;;;;;;;;;617840;23;1198;-73
2023/08/16 00:46:30;;;;;;;9.82;7.07;;;;;;;;;;620823;23;1260;-73
2023/08/16 00:46:45;;;;;;;9.57;7.00;;;;;;;;;;621151;23;1446;-74
2023/08/16 00:47:01;;;;;;;7.93;6.80;;;;;;;;;;618201;23;1173;-74
2023/08/16 00:47:17;;;;;;;7.70;6.60;;;;;;;;;;618166;23;1296;-73
2023/08/16 00:47:53;;;;;;;7.53;6.15;;;;;;;;;;618028;23;1209;-74
2023/08/16 00:48:09;;;;;;;8.52;6.70;;;;;;;;;;616971;23;1155;-74
2023/08/16 00:48:25;;;;;;;7.88;6.80;;;;;;;;;;617697;23;1552;-73
2023/08/16 00:48:43;;;;;;;7.97;6.63;;;;;;;;;;615134;23;1232;-73
2023/08/16 00:49:02;;;;;;;7.13;6.20;;;;;;;;;;616711;23;1310;-73
2023/08/16 00:49:17;;;;;;;7.10;6.22;;;;;;;;;;617246;23;1182;-73
2023/08/16 00:49:37;;;;;;;7.90;6.40;;;;;;;;;;620748;23;1302;-74
2023/08/16 00:49:53;;;;;;;7.20;6.18;;;;;;;;;;617761;23;892;-75
2023/08/16 00:50:09;;;;;;;7.35;6.50;;;;;;;;;;617962;23;1441;-73
2023/08/16 00:50:25;;;;;;;9.10;6.85;;;;;;;;;;617944;23;848;-73
2023/08/16 00:50:40;;;;;;;8.38;6.45;;;;;;;;;;618160;23;1263;-73
2023/08/16 00:50:56;;;;;;;6.72;6.10;;;;;;;;;;617536;23;1507;-73
2023/08/16 00:51:12;;;;;;;7.17;6.43;;;;;;;;;;617715;23;1181;-73
2023/08/16 00:51:27;;;;;;;7.70;6.35;;;;;;;;;;617310;23;1372;-73
2023/08/16 00:51:43;;;;;;;7.78;6.22;;;;;;;;;;619944;23;1234;-73
2023/08/16 00:52:08;;;;;;;9.77;6.70;;;;;;;;;;621021;23;1337;-73
2023/08/16 00:52:23;;;;;;;8.93;6.40;;;;;;;;;;620891;23;851;-74
2023/08/16 00:52:40;;;;;;;7.63;6.50;;;;;;;;;;618104;23;1363;-73
2023/08/16 00:53:00;;;;;;;7.38;6.60;;;;;;;;;;618540;23;1550;-73
2023/08/16 00:53:18;;;;;;;7.25;6.50;;;;;;;;;;615141;23;1364;-74
2023/08/16 00:53:34;;;;;;;8.15;6.55;;;;;;;;;;615625;23;883;-73
2023/08/16 00:53:50;;;;;;;9.15;6.53;;;;;;;;;;618935;23;1087;-74
2023/08/16 00:54:06;;;;;;;8.67;6.97;;;;;;;;;;620807;23;1387;-73
2023/08/16 00:54:21;;;;;;;8.60;6.97;;;;;;;;;;621056;23;927;-73
2023/08/16 00:54:37;;;;;;;8.00;6.57;;;;;;;;;;621325;23;956;-74
2023/08/16 00:54:54;;;;;;;7.43;6.63;;;;;;;;;;619956;23;1219;-74
2023/08/16 00:55:09;;;;;;;7.70;6.90;;;;;;;;;;619466;23;1560;-73
2023/08/16 00:55:25;;;;;;;8.43;7.22;;;;;;;;;;617584;23;1367;-73
2023/08/16 00:55:40;;;;;;;9.87;7.30;;;;;;;;;;618336;23;1379;-74
2023/08/16 00:55:57;;;;;;;8.90;7.05;;;;;;;;;;618400;23;1274;-74
2023/08/16 00:56:14;;;;;;;8.75;7.00;;;;;;;;;;620292;23;980;-76
2023/08/16 00:56:30;;;;;;;9.93;7.40;;;;;;;;;;620312;23;1234;-73
2023/08/16 00:56:47;;;;;;;9.15;7.50;;;;;;;;;;620175;23;1529;-73
2023/08/16 00:57:03;;;;;;;8.23;7.28;;;;;;;;;;620624;23;1467;-73
2023/08/16 00:57:19;;;;;;;7.97;7.18;;;;;;;;;;620983;23;1393;-73
2023/08/16 00:57:34;;;;;;;7.50;6.80;;;;;;;;;;618373;23;1539;-73
2023/08/16 00:57:50;;;;;;;8.70;6.95;;;;;;;;;;618240;23;1253;-73
2023/08/16 00:58:06;;;;;;;10.03;7.10;;;;;;;;;;618435;23;1256;-74
2023/08/16 00:58:22;;;;;;;8.45;7.03;;;;;;;;;;620585;23;1354;-73
2023/08/16 00:58:38;;;;;;;8.20;7.18;;;;;;;;;;620891;23;1240;-73
2023/08/16 00:58:57;;;;;;;8.33;7.10;;;;;;;;;;620757;23;1021;-73
2023/08/16 00:59:14;;;;;;;7.78;6.97;;;;;;;;;;620512;23;1437;-73
2023/08/16 00:59:30;;;;;;;7.68;6.93;;;;;;;;;;618153;23;1531;-73
2023/08/16 00:59:46;;;;;;;8.07;7.20;;;;;;;;;;618061;23;1362;-73
2023/08/16 01:00:04;;;;;;;9.18;7.38;;;;;;;;;;620767;23;1340;-73
2023/08/16 01:00:20;;;;;;;9.02;7.53;;;;;;;;;;618537;23;1261;-74
2023/08/16 01:00:36;;;;;;;9.20;7.60;;;;;;;;;;615069;23;1299;-73
2023/08/16 01:00:52;;;;;;;10.00;7.57;;;;;;;;;;615111;23;1445;-74
2023/08/16 01:01:08;;;;;;;8.70;7.35;;;;;;;;;;615962;23;930;-74
2023/08/16 01:01:23;;;;;;;9.75;7.43;;;;;;;;;;614847;23;1289;-73
2023/08/16 01:01:39;;;;;;;10.23;7.38;;;;;;;;;;620866;23;1352;-73
2023/08/16 01:01:55;;;;;;;9.60;7.38;;;;;;;;;;621122;23;1278;-74
2023/08/16 01:02:14;;;;;;;9.50;7.30;;;;;;;;;;619126;23;1347;-73
2023/08/16 01:02:32;;;;;;;7.68;6.88;;;;;;;;;;618268;23;1313;-74
2023/08/16 01:02:47;;;;;;;8.00;7.20;;;;;;;;;;618295;23;1914;-73
2023/08/16 01:03:09;;;;;;;8.37;7.50;;;;;;;;;;614956;23;1329;-73
2023/08/16 01:03:24;;;;;;;9.30;8.10;;;;;;;;;;615138;23;1381;-73
2023/08/16 01:03:40;;;;;;;9.57;8.20;;;;;;;;;;618355;23;1408;-73
2023/08/16 01:03:56;;;;;;;9.38;8.02;;;;;;;;;;620720;23;1216;-73
2023/08/16 01:04:13;;;;;;;10.20;7.65;;;;;;;;;;623813;23;1255;-73
2023/08/16 01:04:29;;;;;;;10.30;8.38;;;;;;;;;;620798;23;1273;-73
2023/08/16 01:04:47;;;;;;;9.00;8.10;;;;;;;;;;620855;23;1419;-73
2023/08/16 01:05:03;;;;;;;8.10;7.25;;;;;;;;;;620417;23;1602;-74
2023/08/16 01:05:21;;;;;;;8.90;7.70;;;;;;;;;;621506;23;835;-73
2023/08/16 01:05:37;;;;;;;10.52;8.25;;;;;;;;;;621329;23;1513;-73
2023/08/16 01:05:53;;;;;;;10.50;8.48;;;;;;;;;;621070;23;1444;-73
2023/08/16 01:06:08;;;;;;;10.05;8.98;;;;;;;;;;621341;23;823;-73
2023/08/16 01:06:24;;;;;;;9.70;8.63;;;;;;;;;;622455;23;1315;-73
2023/08/16 01:06:39;;;;;;;10.20;8.45;;;;;;;;;;621282;23;1440;-73
2023/08/16 01:06:57;;;;;;;10.17;8.40;;;;;;;;;;619055;23;1229;-73
2023/08/16 01:07:14;;;;;;;8.90;8.00;;;;;;;;;;621120;23;1016;-74
2023/08/16 01:07:29;;;;;;;8.60;7.70;;;;;;;;;;618182;23;1424;-74
2023/08/16 01:07:45;;;;;;;8.98;7.97;;;;;;;;;;616482;23;1169;-74
2023/08/16 01:08:02;;;;;;;10.20;8.35;;;;;;;;;;615291;23;1323;-73
2023/08/16 01:08:18;;;;;;;11.57;8.73;;;;;;;;;;612455;24;1437;-73
2023/08/16 01:08:34;;;;;;;13.20;9.27;;;;;;;;;;612322;24;1226;-73
2023/08/16 01:08:51;;;;;;;11.20;9.05;;;;;;;;;;611883;24;1545;-74
2023/08/16 01:09:07;;;;;;;9.75;8.57;;;;;;;;;;617917;23;1324;-73
2023/08/16 01:09:22;;;;;;;9.43;7.95;;;;;;;;;;617651;23;1223;-73
2023/08/16 01:09:38;;;;;;;9.07;7.53;;;;;;;;;;620761;23;1293;-75
2023/08/16 01:09:57;;;;;;;9.60;8.05;;;;;;;;;;623561;23;1374;-74
2023/08/16 01:10:12;;;;;;;9.82;8.27;;;;;;;;;;620827;23;1587;-74
2023/08/16 01:10:49;;;;;;;10.37;8.43;;;;;;;;;;621332;23;789;-73
2023/08/16 01:11:14;;;;;;;10.32;8.45;;;;;;;;;;621063;23;1373;-73
2023/08/16 01:11:35;;;;;;;10.63;8.88;;;;;;;;;;623983;23;953;-73
2023/08/16 01:12:23;;;;;;;10.10;8.80;;;;;;;;;;620680;23;1406;-73
2023/08/16 01:12:47;;;;;;;9.48;8.55;;;;;;;;;;623891;23;1416;-73
2023/08/16 01:13:09;;;;;;;10.05;8.77;;;;;;;;;;623022;23;1276;-73
2023/08/16 01:13:57;;;;;;;10.52;8.45;;;;;;;;;;624208;23;1108;-74
2023/08/16 01:14:35;;;;;;;12.02;8.38;;;;;;;;;;623852;23;894;-73
2023/08/16 01:15:06;;;;;;;11.18;8.77;;;;;;;;;;617819;23;1089;-73
2023/08/16 01:15:32;;;;;;;10.27;7.90;;;;;;;;;;624081;23;859;-73
2023/08/16 01:15:50;;;;;;;11.23;8.50;;;;;;;;;;624027;23;1384;-73
2023/08/16 01:16:07;;;;;;;10.75;8.60;;;;;;;;;;622526;23;879;-73
2023/08/16 01:16:27;;;;;;;10.85;8.75;;;;;;;;;;623787;23;1505;-74
2023/08/16 01:16:45;;;;;;;9.75;8.27;;;;;;;;;;620645;23;1256;-73
2023/08/16 01:17:02;;;;;;;9.40;8.20;;;;;;;;;;617715;23;1452;-74
2023/08/16 01:17:20;;;;;;;9.40;8.05;;;;;;;;;;618031;23;1316;-74
2023/08/16 01:17:37;;;;;;;9.77;8.13;;;;;;;;;;618626;23;1016;-74
2023/08/16 01:17:53;;;;;;;10.57;8.35;;;;;;;;;;617859;23;1253;-73
2023/08/16 01:18:11;;;;;;;9.95;8.00;;;;;;;;;;618095;23;1349;-74
2023/08/16 01:18:29;;;;;;;11.13;8.35;;;;;;;;;;620686;23;1395;-73
2023/08/16 01:18:45;;;;;;;11.02;8.88;;;;;;;;;;621220;23;883;-74
2023/08/16 01:19:08;;;;;;;10.13;8.75;;;;;;;;;;623451;23;1329;-74
2023/08/16 01:19:32;;;;;;;10.45;8.85;;;;;;;;;;620721;23;1309;-74
2023/08/16 01:19:49;;;;;;;10.95;8.70;;;;;;;;;;621538;23;1341;-74
2023/08/16 01:20:07;;;;;;;10.68;8.70;;;;;;;;;;623294;23;1039;-73
2023/08/16 01:20:24;;;;;;;10.10;8.63;;;;;;;;;;623531;23;851;-74
2023/08/16 01:20:40;;;;;;;10.55;8.95;;;;;;;;;;623526;23;1364;-74
2023/08/16 01:20:56;;;;;;;10.05;8.77;;;;;;;;;;621148;23;1298;-74
2023/08/16 01:21:15;;;;;;;10.73;8.70;;;;;;;;;;621538;23;792;-73
2023/08/16 01:21:32;;;;;;;11.20;8.68;;;;;;;;;;621375;23;1475;-74
2023/08/16 01:21:53;;;;;;;11.10;8.40;;;;;;;;;;617509;23;1491;-74
2023/08/16 01:22:35;;;;;;;11.25;8.80;;;;;;;;;;614338;23;1610;-74
2023/08/16 01:23:03;;;;;;;10.65;8.82;;;;;;;;;;616110;23;1933;-74
2023/08/16 01:23:32;;;;;;;9.50;8.50;;;;;;;;;;615154;23;1261;-73
2023/08/16 01:24:14;;;;;;;9.80;8.38;;;;;;;;;;617368;23;1457;-74
2023/08/16 01:24:48;;;;;;;9.57;8.50;;;;;;;;;;620926;23;1414;-75
2023/08/16 01:25:44;;;;;;;9.25;8.10;;;;;;;;;;620563;23;864;-73
2023/08/16 01:26:19;;;;;;;11.20;8.35;;;;;;;;;;623425;23;1486;-74
2023/08/16 01:26:37;;;;;;;11.00;8.88;;;;;;;;;;615071;23;1181;-74
2023/08/16 01:26:54;;;;;;;10.07;8.50;;;;;;;;;;619806;23;1099;-74
2023/08/16 01:27:11;;;;;;;8.40;7.47;;;;;;;;;;626739;23;866;-74
2023/08/16 01:27:27;;;;;;;8.63;7.72;;;;;;;;;;623377;23;1589;-75
2023/08/16 01:27:47;;;;;;;9.20;8.30;;;;;;;;;;620275;23;1236;-74
2023/08/16 01:28:03;;;;;;;9.18;8.18;;;;;;;;;;619807;23;1256;-73
2023/08/16 01:28:21;;;;;;;10.10;8.68;;;;;;;;;;620523;23;1442;-74
2023/08/16 01:28:39;;;;;;;10.77;8.27;;;;;;;;;;620858;23;847;-74
2023/08/16 01:28:57;;;;;;;9.38;7.68;;;;;;;;;;621114;23;1280;-74
2023/08/16 01:29:13;;;;;;;8.73;7.82;;;;;;;;;;618000;23;1178;-74
2023/08/16 01:29:30;;;;;;;8.80;7.93;;;;;;;;;;614772;23;1420;-74
2023/08/16 01:29:46;;;;;;;8.98;7.80;;;;;;;;;;614766;23;1330;-75
2023/08/16 01:30:04;;;;;;;9.30;7.55;;;;;;;;;;614860;23;1482;-75
2023/08/16 01:30:21;;;;;;;9.43;7.70;;;;;;;;;;614574;23;1491;-74
2023/08/16 01:30:40;;;;;;;9.13;7.43;;;;;;;;;;614394;23;864;-74
2023/08/16 01:31:05;;;;;;;9.25;7.20;;;;;;;;;;617439;23;864;-74
2023/08/16 01:31:21;;;;;;;9.20;7.57;;;;;;;;;;618504;23;896;-74
2023/08/16 01:31:37;;;;;;;8.82;7.68;;;;;;;;;;618965;23;1131;-74
2023/08/16 01:31:53;;;;;;;7.93;7.13;;;;;;;;;;618031;23;1372;-74
2023/08/16 01:32:12;;;;;;;7.97;7.17;;;;;;;;;;615238;23;1287;-74
2023/08/16 01:32:28;;;;;;;9.05;7.32;;;;;;;;;;615068;23;1420;-74
2023/08/16 01:32:47;;;;;;;8.00;7.20;;;;;;;;;;614791;23;802;-74
2023/08/16 01:33:07;;;;;;;8.13;7.28;;;;;;;;;;614452;23;1355;-74
2023/08/16 01:33:23;;;;;;;8.48;7.30;;;;;;;;;;617495;23;1233;-74
2023/08/16 01:33:39;;;;;;;8.85;7.20;;;;;;;;;;620846;23;1395;-74
2023/08/16 01:33:55;;;;;;;8.73;7.30;;;;;;;;;;620922;23;1097;-74
2023/08/16 01:34:30;;;;;;;8.48;7.53;;;;;;;;;;618387;23;1304;-74
2023/08/16 01:34:46;;;;;;;8.50;7.35;;;;;;;;;;611297;24;1364;-74
2023/08/16 01:35:02;;;;;;;9.03;7.30;;;;;;;;;;612607;23;1217;-73
2023/08/16 01:35:18;;;;;;;8.32;7.30;;;;;;;;;;612295;24;1353;-74
2023/08/16 01:35:34;;;;;;;7.88;6.97;;;;;;;;;;614452;23;1294;-74
2023/08/16 01:35:50;;;;;;;7.68;6.57;;;;;;;;;;617939;23;1431;-74
2023/08/16 01:36:08;;;;;;;8.60;6.60;;;;;;;;;;621229;23;1138;-74
2023/08/16 01:36:23;;;;;;;8.05;6.93;;;;;;;;;;620823;23;1789;-74
2023/08/16 01:36:39;;;;;;;8.00;7.20;;;;;;;;;;618136;23;1394;-74
2023/08/16 01:36:55;;;;;;;8.13;7.33;;;;;;;;;;620985;23;1201;-74
2023/08/16 01:37:10;;;;;;;8.07;7.28;;;;;;;;;;617847;23;1188;-74
2023/08/16 01:37:26;;;;;;;7.60;6.90;;;;;;;;;;614508;23;1254;-74
2023/08/16 01:37:45;;;;;;;8.23;6.90;;;;;;;;;;615147;23;1188;-74
2023/08/16 01:38:01;;;;;;;8.98;7.00;;;;;;;;;;615061;23;1289;-74
2023/08/16 01:38:19;;;;;;;8.85;7.25;;;;;;;;;;614885;23;1432;-74
2023/08/16 01:38:35;;;;;;;8.35;7.20;;;;;;;;;;614558;23;1379;-74
2023/08/16 01:38:51;;;;;;;8.32;7.07;;;;;;;;;;618305;23;1508;-74
2023/08/16 01:39:07;;;;;;;9.15;7.30;;;;;;;;;;621023;23;1333;-74
2023/08/16 01:39:22;;;;;;;7.93;7.13;;;;;;;;;;621022;23;1402;-74
2023/08/16 01:39:38;;;;;;;8.27;7.13;;;;;;;;;;618614;23;1063;-73
2023/08/16 01:40:04;;;;;;;9.07;7.10;;;;;;;;;;617737;23;1495;-74
2023/08/16 01:40:20;;;;;;;8.40;6.90;;;;;;;;;;620480;23;1455;-74
2023/08/16 01:40:45;;;;;;;8.00;6.80;;;;;;;;;;621265;23;781;-74
2023/08/16 01:41:34;;;;;;;8.27;7.20;;;;;;;;;;620930;23;879;-74
2023/08/16 01:41:51;;;;;;;7.55;6.75;;;;;;;;;;624085;23;859;-74
2023/08/16 01:42:13;;;;;;;8.27;6.95;;;;;;;;;;624001;23;1271;-73
2023/08/16 01:42:33;;;;;;;8.07;6.85;;;;;;;;;;623910;23;1339;-74
2023/08/16 01:42:49;;;;;;;8.18;6.80;;;;;;;;;;620820;23;1952;-74
2023/08/16 01:43:09;;;;;;;7.78;6.80;;;;;;;;;;618132;23;1378;-74
2023/08/16 01:43:25;;;;;;;8.15;7.30;;;;;;;;;;617718;23;1341;-74
2023/08/16 01:43:43;;;;;;;8.80;7.38;;;;;;;;;;617690;23;1430;-74
2023/08/16 01:43:59;;;;;;;10.27;7.00;;;;;;;;;;620873;23;1375;-74
2023/08/16 01:44:18;;;;;;;9.93;6.70;;;;;;;;;;621311;23;1303;-74
2023/08/16 01:44:34;;;;;;;7.10;6.40;;;;;;;;;;621139;23;1430;-74
2023/08/16 01:44:54;;;;;;;6.93;6.30;;;;;;;;;;621250;23;1256;-74
2023/08/16 01:45:13;;;;;;;7.10;6.35;;;;;;;;;;620557;23;895;-74
2023/08/16 01:45:29;;;;;;;7.03;6.30;;;;;;;;;;620197;23;1360;-74
2023/08/16 01:45:50;;;;;;;7.20;6.50;;;;;;;;;;620438;23;860;-74
2023/08/16 01:46:08;;;;;;;7.07;6.38;;;;;;;;;;623843;23;1572;-74
2023/08/16 01:46:25;;;;;;;7.20;6.25;;;;;;;;;;623287;23;1407;-74
2023/08/16 01:46:42;;;;;;;7.07;6.25;;;;;;;;;;623742;23;903;-74
2023/08/16 01:47:18;;;;;;;7.28;6.45;;;;;;;;;;620496;23;1503;-74
2023/08/16 01:47:36;;;;;;;7.50;6.07;;;;;;;;;;620928;23;1218;-75
2023/08/16 01:47:52;;;;;;;6.90;6.10;;;;;;;;;;620811;23;1302;-74
2023/08/16 01:48:09;;;;;;;8.57;6.00;;;;;;;;;;623546;23;1494;-74
2023/08/16 01:48:26;;;;;;;7.85;5.72;;;;;;;;;;620534;23;1448;-74
2023/08/16 01:48:44;;;;;;;6.25;5.53;;;;;;;;;;620111;23;1586;-74
2023/08/16 01:49:04;;;;;;;5.85;5.25;;;;;;;;;;620693;23;1308;-73
2023/08/16 01:49:23;;;;;;;5.90;5.30;;;;;;;;;;618087;23;1522;-74
2023/08/16 01:49:41;;;;;;;6.10;5.40;;;;;;;;;;618233;23;1405;-74
2023/08/16 01:49:57;;;;;;;5.93;5.30;;;;;;;;;;621306;23;1622;-74
2023/08/16 01:50:14;;;;;;;5.90;5.03;;;;;;;;;;620785;23;1415;-74
2023/08/16 01:50:29;;;;;;;5.35;4.70;;;;;;;;;;621010;23;1385;-74
2023/08/16 01:50:45;;;;;;;5.43;4.77;;;;;;;;;;620901;23;1380;-74
2023/08/16 01:51:01;;;;;;;5.75;4.97;;;;;;;;;;620988;23;986;-73
2023/08/16 01:51:18;;;;;;;6.05;5.07;;;;;;;;;;620658;23;1057;-74
2023/08/16 01:51:33;;;;;;;6.82;5.35;;;;;;;;;;619317;23;1458;-74
2023/08/16 01:51:52;;;;;;;8.60;5.50;;;;;;;;;;620657;23;902;-73